createdAt,value
2022-07-29T00:02:27.013Z,54.47
2022-07-29T00:04:53.828Z,54.95
2022-07-29T00:07:20.881Z,55.09
2022-07-29T00:09:51.881Z,54.69
2022-07-29T00:12:26.339Z,54.23
2022-07-29T00:14:57.636Z,54.77
2022-07-29T00:17:25.684Z,55.52
2022-07-29T00:19:52.636Z,55.95
2022-07-29T00:22:19.955Z,55.96
2022-07-29T00:24:49.444Z,56.22
2022-07-29T00:27:15.973Z,56.52
2022-07-29T00:29:42.668Z,55.80
2022-07-29T00:32:09.240Z,55.56
2022-07-29T00:34:54.981Z,56.60
2022-07-29T00:37:21.881Z,55.77
2022-07-29T00:39:48.655Z,55.58
2022-07-29T00:42:15.223Z,56.71
2022-07-29T00:44:42.544Z,55.50
2022-07-29T00:47:11.334Z,55.86
2022-07-29T00:49:40.277Z,55.19
2022-07-29T00:52:07.981Z,54.29
2022-07-29T00:54:35.255Z,54.13
2022-07-29T00:57:08.514Z,55.07
2022-07-29T00:59:35.644Z,54.97
2022-07-29T01:02:03.935Z,54.67
2022-07-29T01:04:32.191Z,54.05
2022-07-29T01:06:59.716Z,54.71
2022-07-29T01:09:42.087Z,55.07
2022-07-29T01:12:17.230Z,55.98
2022-07-29T01:14:44.517Z,54.87
2022-07-29T01:17:14.986Z,54.79
2022-07-29T01:19:59.012Z,55.26
2022-07-29T01:22:38.241Z,55.00
2022-07-29T01:25:40.498Z,55.30
2022-07-29T01:28:41.195Z,55.29
2022-07-29T01:31:11.914Z,55.35
2022-07-29T01:33:53.568Z,55.14
2022-07-29T01:36:44.331Z,54.86
2022-07-29T01:39:26.878Z,54.48
2022-07-29T01:42:10.280Z,54.70
2022-07-29T01:44:46.497Z,54.65
2022-07-29T01:47:18.431Z,54.40
2022-07-29T01:49:51.921Z,54.66
2022-07-29T01:52:32.050Z,55.60
2022-07-29T01:55:02.946Z,56.05
2022-07-29T01:57:32.922Z,55.18
2022-07-29T02:00:01.713Z,54.93
2022-07-29T02:02:41.207Z,55.92
2022-07-29T02:05:11.390Z,55.27
2022-07-29T02:07:41.245Z,55.20
2022-07-29T02:10:10.194Z,56.24
2022-07-29T02:12:39.962Z,55.95
2022-07-29T02:15:08.305Z,55.41
2022-07-29T02:17:55.915Z,55.55
2022-07-29T02:20:25.869Z,56.37
2022-07-29T02:22:54.118Z,56.74
2022-07-29T02:25:23.278Z,56.26
2022-07-29T02:27:53.418Z,57.31
2022-07-29T02:30:23.053Z,55.65
2022-07-29T02:32:51.438Z,55.64
2022-07-29T02:35:20.601Z,56.14
2022-07-29T02:38:07.499Z,56.21
2022-07-29T02:40:36.931Z,55.59
2022-07-29T02:43:06.340Z,54.93
2022-07-29T02:45:35.322Z,55.56
2022-07-29T02:48:07.681Z,55.99
2022-07-29T02:50:38.051Z,55.16
2022-07-29T02:53:33.316Z,55.00
2022-07-29T02:56:02.838Z,55.13
2022-07-29T02:58:41.432Z,54.93
2022-07-29T03:01:21.002Z,55.45
2022-07-29T03:03:50.258Z,56.02
2022-07-29T03:06:37.477Z,56.24
2022-07-29T03:09:12.587Z,56.16
2022-07-29T03:11:48.011Z,56.34
2022-07-29T03:14:18.721Z,56.52
2022-07-29T03:16:46.067Z,56.64
2022-07-29T03:19:13.283Z,56.05
2022-07-29T03:21:40.423Z,56.06
2022-07-29T03:24:10.484Z,55.68
2022-07-29T03:26:37.879Z,55.39
2022-07-29T03:29:04.504Z,55.59
2022-07-29T03:31:32.053Z,55.87
2022-07-29T03:34:00.267Z,55.90
2022-07-29T03:36:27.156Z,55.47
2022-07-29T03:38:54.244Z,55.88
2022-07-29T03:41:23.656Z,56.33
2022-07-29T03:43:51.453Z,55.72
2022-07-29T03:46:20.146Z,56.32
2022-07-29T03:48:51.564Z,56.66
2022-07-29T03:51:18.678Z,56.26
2022-07-29T03:54:00.408Z,56.68
2022-07-29T03:56:30.035Z,56.61
2022-07-29T03:58:57.001Z,55.87
2022-07-29T04:01:24.825Z,56.05
2022-07-29T04:03:52.422Z,56.00
2022-07-29T04:06:19.021Z,55.79
2022-07-29T04:08:45.631Z,56.16
2022-07-29T04:11:12.383Z,56.10
2022-07-29T04:13:39.334Z,55.73
2022-07-29T04:16:06.034Z,54.92
2022-07-29T04:18:33.130Z,55.34
2022-07-29T04:21:01.685Z,55.63
2022-07-29T04:23:33.349Z,55.45
2022-07-29T04:26:01.287Z,55.67
2022-07-29T04:28:27.893Z,55.36
2022-07-29T04:30:54.973Z,55.37
2022-07-29T04:33:21.534Z,56.09
2022-07-29T04:35:52.547Z,55.14
2022-07-29T04:38:21.949Z,55.48
2022-07-29T04:40:49.798Z,55.59
2022-07-29T04:43:20.565Z,55.34
2022-07-29T04:45:50.012Z,54.80
2022-07-29T04:48:17.663Z,55.37
2022-07-29T04:50:45.317Z,54.94
2022-07-29T04:53:12.017Z,55.07
2022-07-29T04:55:38.984Z,55.38
2022-07-29T04:58:05.797Z,55.11
2022-07-29T05:00:33.529Z,55.40
2022-07-29T05:03:00.625Z,54.74
2022-07-29T05:05:27.303Z,54.65
2022-07-29T05:07:54.093Z,55.33
2022-07-29T05:10:20.828Z,55.37
2022-07-29T05:12:47.381Z,54.61
2022-07-29T05:15:14.477Z,53.93
2022-07-29T05:17:41.006Z,53.91
2022-07-29T05:20:09.022Z,54.08
2022-07-29T05:22:35.804Z,53.79
2022-07-29T05:25:08.506Z,53.83
2022-07-29T05:27:36.746Z,54.24
2022-07-29T05:30:03.872Z,53.95
2022-07-29T05:32:30.422Z,54.81
2022-07-29T05:34:56.950Z,54.99
2022-07-29T05:37:23.570Z,54.62
2022-07-29T05:39:56.986Z,54.34
2022-07-29T05:42:25.839Z,53.90
2022-07-29T05:44:54.124Z,53.97
2022-07-29T05:47:20.669Z,53.96
2022-07-29T05:49:47.284Z,53.62
2022-07-29T05:52:14.488Z,53.61
2022-07-29T05:54:41.894Z,53.08
2022-07-29T05:57:08.572Z,52.47
2022-07-29T05:59:38.863Z,52.39
2022-07-29T06:02:06.075Z,51.30
2022-07-29T06:04:34.408Z,50.71
2022-07-29T06:07:01.035Z,50.38
2022-07-29T06:09:29.170Z,50.78
2022-07-29T06:11:56.250Z,51.08
2022-07-29T06:14:22.797Z,50.69
2022-07-29T06:16:49.487Z,50.28
2022-07-29T06:19:16.726Z,50.51
2022-07-29T06:21:44.449Z,50.52
2022-07-29T06:24:15.851Z,50.39
2022-07-29T06:26:43.194Z,50.90
2022-07-29T06:29:11.580Z,50.48
2022-07-29T06:31:38.702Z,50.11
2022-07-29T06:34:05.551Z,50.51
2022-07-29T06:36:35.599Z,50.51
2022-07-29T06:39:08.075Z,50.13
2022-07-29T06:41:35.370Z,50.18
2022-07-29T06:44:10.112Z,50.05
2022-07-29T06:46:37.372Z,50.50
2022-07-29T06:49:04.079Z,50.30
2022-07-29T06:51:30.680Z,49.51
2022-07-29T06:54:02.412Z,49.78
2022-07-29T06:56:39.608Z,49.26
2022-07-29T06:59:10.748Z,49.13
2022-07-29T07:01:42.106Z,47.43
2022-07-29T07:04:09.741Z,44.55
2022-07-29T07:06:37.198Z,41.80
2022-07-29T07:09:04.289Z,40.37
2022-07-29T07:11:30.874Z,38.99
2022-07-29T07:14:02.464Z,38.25
2022-07-29T07:16:30.632Z,39.58
2022-07-29T07:18:57.261Z,40.61
2022-07-29T07:21:24.860Z,40.88
2022-07-29T07:23:51.759Z,41.05
2022-07-29T07:26:18.509Z,41.83
2022-07-29T07:28:45.087Z,41.60
2022-07-29T07:31:13.103Z,40.91
2022-07-29T07:33:40.975Z,41.36
2022-07-29T07:36:07.570Z,41.90
2022-07-29T07:38:34.123Z,41.87
2022-07-29T07:41:01.251Z,41.95
2022-07-29T07:43:27.857Z,41.34
2022-07-29T07:45:54.452Z,41.12
2022-07-29T07:48:21.126Z,39.22
2022-07-29T07:50:47.789Z,38.98
2022-07-29T07:53:14.803Z,37.91
2022-07-29T07:58:29.483Z,37.16
2022-07-29T08:00:56.124Z,37.84
2022-07-29T08:03:22.671Z,38.68
2022-07-29T08:05:51.501Z,40.11
2022-07-29T08:08:18.875Z,40.01
2022-07-29T08:10:54.775Z,40.95
2022-07-29T08:13:22.954Z,40.95
2022-07-29T08:15:58.483Z,40.93
2022-07-29T08:18:26.204Z,42.07
2022-07-29T08:20:53.624Z,41.65
2022-07-29T08:23:20.568Z,41.92
2022-07-29T08:25:47.227Z,41.26
2022-07-29T08:28:18.314Z,41.61
2022-07-29T08:30:45.008Z,41.75
2022-07-29T08:33:11.646Z,42.37
2022-07-29T08:35:39.620Z,41.90
2022-07-29T08:38:06.245Z,42.14
2022-07-29T08:40:33.442Z,42.70
2022-07-29T08:43:06.528Z,41.59
2022-07-29T08:45:47.444Z,41.45
2022-07-29T08:48:23.609Z,41.39
2022-07-29T08:50:54.234Z,41.17
2022-07-29T08:53:22.619Z,42.19
2022-07-29T08:55:50.866Z,42.24
2022-07-29T08:58:18.444Z,41.91
2022-07-29T09:00:55.880Z,42.70
2022-07-29T09:03:28.223Z,43.22
2022-07-29T09:05:55.303Z,42.47
2022-07-29T09:08:22.681Z,42.25
2022-07-29T09:10:50.146Z,42.55
2022-07-29T09:13:16.705Z,42.02
2022-07-29T09:15:43.295Z,41.44
2022-07-29T09:18:20.319Z,41.53
2022-07-29T09:21:15.233Z,41.80
2022-07-29T09:23:42.624Z,42.02
2022-07-29T09:26:09.145Z,42.57
2022-07-29T09:28:42.671Z,41.83
2022-07-29T09:31:09.498Z,42.14
2022-07-29T09:33:36.639Z,41.91
2022-07-29T09:36:08.503Z,42.01
2022-07-29T09:38:37.539Z,41.30
2022-07-29T09:41:06.943Z,41.07
2022-07-29T09:43:34.307Z,40.84
2022-07-29T09:46:14.458Z,40.61
2022-07-29T09:48:41.306Z,40.37
2022-07-29T09:51:25.426Z,39.64
2022-07-29T09:53:56.698Z,39.51
2022-07-29T09:56:42.430Z,39.45
2022-07-29T09:59:12.045Z,39.10
2022-07-29T10:01:38.561Z,38.93
2022-07-29T10:04:05.605Z,39.45
2022-07-29T10:06:32.392Z,38.56
2022-07-29T10:09:12.176Z,38.93
2022-07-29T10:11:49.442Z,38.35
2022-07-29T10:14:17.015Z,37.89
2022-07-29T10:16:44.207Z,38.25
2022-07-29T10:19:11.148Z,37.59
2022-07-29T10:21:40.606Z,38.14
2022-07-29T10:24:15.057Z,38.77
2022-07-29T10:26:42.903Z,37.35
2022-07-29T10:29:09.689Z,36.79
2022-07-29T10:31:51.044Z,37.71
2022-07-29T10:34:32.225Z,37.17
2022-07-29T10:37:45.880Z,37.42
2022-07-29T10:40:41.477Z,37.34
2022-07-29T10:43:23.734Z,37.18
2022-07-29T10:45:58.166Z,36.72
2022-07-29T10:48:26.311Z,36.32
2022-07-29T10:51:04.509Z,35.77
2022-07-29T10:53:53.981Z,36.39
2022-07-29T10:56:30.605Z,36.46
2022-07-29T10:59:18.886Z,35.80
2022-07-29T11:01:52.706Z,36.36
2022-07-29T11:04:45.237Z,36.12
2022-07-29T11:07:13.141Z,36.65
2022-07-29T11:09:41.863Z,35.31
2022-07-29T11:12:38.722Z,35.67
2022-07-29T11:15:09.026Z,35.45
2022-07-29T11:17:59.429Z,35.34
2022-07-29T11:20:42.620Z,35.94
2022-07-29T11:23:40.234Z,34.99
2022-07-29T11:26:21.039Z,35.14
2022-07-29T11:29:17.570Z,34.64
2022-07-29T11:31:46.777Z,34.72
2022-07-29T11:34:33.353Z,35.09
2022-07-29T11:37:10.529Z,33.87
2022-07-29T11:39:39.687Z,33.40
2022-07-29T11:42:28.204Z,33.76
2022-07-29T11:45:44.231Z,33.08
2022-07-29T11:48:05.253Z,34.17
2022-07-29T11:50:45.759Z,33.30
2022-07-29T11:53:16.225Z,33.44
2022-07-29T11:55:51.902Z,33.03
2022-07-29T11:58:26.056Z,33.45
2022-07-29T12:00:55.256Z,33.92
2022-07-29T12:03:33.438Z,33.19
2022-07-29T12:06:02.892Z,33.25
2022-07-29T12:08:30.601Z,33.73
2022-07-29T12:10:57.179Z,33.92
2022-07-29T12:13:37.795Z,33.51
2022-07-29T12:16:05.053Z,33.24
2022-07-29T12:18:32.507Z,33.11
2022-07-29T12:21:04.605Z,32.39
2022-07-29T12:23:34.694Z,32.39
2022-07-29T12:26:05.127Z,32.46
2022-07-29T12:28:40.819Z,33.14
2022-07-29T12:31:14.939Z,33.45
2022-07-29T12:34:02.471Z,32.99
2022-07-29T12:36:29.117Z,33.26
2022-07-29T12:38:55.714Z,33.14
2022-07-29T12:41:23.111Z,33.88
2022-07-29T12:43:56.377Z,33.12
2022-07-29T12:46:22.995Z,32.29
2022-07-29T12:48:57.526Z,32.61
2022-07-29T12:51:32.682Z,33.49
2022-07-29T12:54:05.653Z,33.01
2022-07-29T12:56:47.580Z,32.55
2022-07-29T12:59:20.254Z,31.97
2022-07-29T13:01:52.007Z,32.08
2022-07-29T13:04:32.940Z,32.18
2022-07-29T13:07:10.513Z,32.53
2022-07-29T13:09:40.529Z,32.37
2022-07-29T13:12:12.109Z,32.41
2022-07-29T13:14:47.461Z,32.94
2022-07-29T13:17:21.614Z,32.40
2022-07-29T13:19:53.091Z,32.18
2022-07-29T13:22:22.162Z,32.80
2022-07-29T13:25:00.181Z,32.07
2022-07-29T13:27:33.058Z,31.87
2022-07-29T13:30:01.938Z,32.32
2022-07-29T13:32:30.751Z,32.33
2022-07-29T13:34:58.946Z,32.76
2022-07-29T13:37:27.224Z,32.28
2022-07-29T13:39:55.000Z,32.71
2022-07-29T13:42:21.741Z,32.73
2022-07-29T13:44:49.922Z,32.58
2022-07-29T13:47:17.383Z,32.50
2022-07-29T13:49:43.998Z,31.05
2022-07-29T13:52:10.621Z,32.45
2022-07-29T13:54:41.925Z,33.01
2022-07-29T13:57:11.542Z,32.12
2022-07-29T13:59:38.709Z,32.79
2022-07-29T14:02:05.928Z,32.24
2022-07-29T14:04:33.334Z,31.25
2022-07-29T14:07:00.172Z,30.53
2022-07-29T14:09:30.837Z,31.30
2022-07-29T14:12:08.166Z,31.02
2022-07-29T14:14:36.425Z,31.05
2022-07-29T14:17:04.294Z,31.34
2022-07-29T14:19:32.903Z,31.07
2022-07-29T14:22:00.151Z,30.46
2022-07-29T14:24:27.377Z,31.17
2022-07-29T14:26:53.959Z,30.87
2022-07-29T14:29:20.654Z,30.62
2022-07-29T14:31:47.748Z,30.70
2022-07-29T14:34:16.315Z,30.92
2022-07-29T14:36:43.051Z,30.79
2022-07-29T14:39:09.743Z,31.07
2022-07-29T14:41:36.546Z,31.50
2022-07-29T14:44:03.291Z,30.74
2022-07-29T14:46:29.902Z,30.70
2022-07-29T14:48:56.834Z,30.85
2022-07-29T14:51:23.944Z,31.13
2022-07-29T14:53:58.908Z,31.02
2022-07-29T14:56:46.791Z,30.81
2022-07-29T14:59:12.118Z,31.38
2022-07-29T15:01:39.149Z,31.61
2022-07-29T15:04:06.046Z,30.87
2022-07-29T15:06:32.593Z,31.11
2022-07-29T15:08:59.125Z,31.43
2022-07-29T15:11:26.455Z,31.65
2022-07-29T15:13:53.042Z,30.83
2022-07-29T15:16:20.180Z,30.62
2022-07-29T15:18:46.772Z,30.64
2022-07-29T15:21:13.382Z,30.04
2022-07-29T15:23:40.107Z,30.38
2022-07-29T15:26:06.662Z,30.42
2022-07-29T15:28:33.194Z,30.86
2022-07-29T15:31:00.229Z,31.52
2022-07-29T15:33:27.229Z,31.41
2022-07-29T15:35:53.794Z,31.50
2022-07-29T15:38:20.400Z,30.84
2022-07-29T15:40:55.297Z,31.43
2022-07-29T15:43:21.854Z,30.77
2022-07-29T15:46:07.128Z,30.44
2022-07-29T15:48:33.786Z,30.56
2022-07-29T15:51:00.966Z,30.84
2022-07-29T15:53:27.569Z,30.22
2022-07-29T15:55:54.131Z,30.17
2022-07-29T15:58:20.700Z,30.31
2022-07-29T16:00:47.827Z,30.39
2022-07-29T16:03:14.940Z,30.32
2022-07-29T16:05:42.371Z,30.44
2022-07-29T16:08:09.278Z,30.62
2022-07-29T16:10:36.473Z,30.92
2022-07-29T16:13:03.071Z,30.72
2022-07-29T16:15:29.626Z,30.28
2022-07-29T16:17:56.222Z,30.62
2022-07-29T16:20:23.445Z,30.22
2022-07-29T16:22:49.977Z,30.60
2022-07-29T16:25:18.406Z,30.45
2022-07-29T16:27:44.976Z,31.01
2022-07-29T16:30:11.783Z,31.10
2022-07-29T16:32:39.718Z,30.83
2022-07-29T16:35:07.530Z,30.98
2022-07-29T16:37:36.744Z,30.72
2022-07-29T16:40:05.036Z,31.76
2022-07-29T16:42:46.065Z,30.75
2022-07-29T16:45:14.054Z,30.90
2022-07-29T16:47:40.639Z,30.74
2022-07-29T16:50:07.856Z,30.51
2022-07-29T16:52:34.538Z,30.71
2022-07-29T16:55:01.066Z,30.42
2022-07-29T16:57:27.864Z,30.56
2022-07-29T16:59:54.415Z,30.66
2022-07-29T17:02:21.267Z,30.90
2022-07-29T17:04:48.352Z,30.08
2022-07-29T17:07:15.948Z,30.56
2022-07-29T17:09:42.504Z,30.66
2022-07-29T17:12:09.368Z,30.50
2022-07-29T17:14:35.884Z,30.67
2022-07-29T17:17:03.184Z,31.06
2022-07-29T17:19:32.210Z,30.67
2022-07-29T17:22:08.954Z,30.74
2022-07-29T17:24:38.244Z,31.14
2022-07-29T17:27:05.880Z,30.77
2022-07-29T17:29:34.763Z,31.56
2022-07-29T17:32:01.478Z,31.17
2022-07-29T17:34:28.279Z,31.27
2022-07-29T17:36:54.825Z,30.91
2022-07-29T17:39:21.683Z,31.06
2022-07-29T17:41:48.486Z,31.08
2022-07-29T17:44:15.714Z,31.65
2022-07-29T17:46:42.301Z,31.65
2022-07-29T17:49:09.022Z,31.38
2022-07-29T17:51:35.922Z,31.15
2022-07-29T17:54:02.549Z,31.13
2022-07-29T17:56:29.098Z,31.17
2022-07-29T17:58:56.055Z,32.02
2022-07-29T18:01:23.631Z,32.80
2022-07-29T18:03:50.237Z,33.86
2022-07-29T18:06:16.825Z,34.21
2022-07-29T18:08:47.351Z,34.45
2022-07-29T18:11:15.141Z,34.46
2022-07-29T18:13:42.014Z,35.54
2022-07-29T18:16:11.772Z,36.11
2022-07-29T18:18:38.343Z,37.32
2022-07-29T18:21:05.648Z,38.39
2022-07-29T18:23:32.595Z,39.44
2022-07-29T18:25:59.397Z,39.36
2022-07-29T18:28:26.120Z,39.99
2022-07-29T18:30:53.161Z,40.31
2022-07-29T18:33:22.333Z,40.56
2022-07-29T18:35:51.270Z,41.16
2022-07-29T18:38:18.060Z,41.24
2022-07-29T18:40:45.648Z,41.78
2022-07-29T18:43:13.411Z,42.41
2022-07-29T18:45:40.644Z,42.93
2022-07-29T18:48:11.909Z,43.17
2022-07-29T18:50:40.359Z,42.95
2022-07-29T18:53:06.990Z,42.32
2022-07-29T18:55:33.581Z,43.82
2022-07-29T18:58:00.221Z,43.84
2022-07-29T19:00:27.231Z,43.83
2022-07-29T19:02:54.078Z,43.06
2022-07-29T19:05:21.119Z,43.83
2022-07-29T19:07:47.799Z,44.72
2022-07-29T19:10:14.845Z,44.25
2022-07-29T19:12:41.461Z,43.63
2022-07-29T19:15:10.257Z,43.77
2022-07-29T19:17:36.957Z,44.20
2022-07-29T19:20:03.819Z,43.15
2022-07-29T19:22:30.984Z,44.35
2022-07-29T19:24:57.689Z,42.92
2022-07-29T19:27:24.290Z,43.22
2022-07-29T19:29:50.834Z,43.86
2022-07-29T19:32:25.017Z,43.54
2022-07-29T19:35:11.326Z,43.61
2022-07-29T19:37:37.907Z,44.60
2022-07-29T19:40:06.541Z,44.86
2022-07-29T19:42:33.322Z,44.61
2022-07-29T19:44:59.943Z,44.39
2022-07-29T19:47:26.513Z,44.55
2022-07-29T19:49:53.109Z,44.01
2022-07-29T19:52:19.849Z,44.30
2022-07-29T19:54:46.381Z,44.90
2022-07-29T19:57:13.030Z,44.75
2022-07-29T19:59:41.253Z,45.82
2022-07-29T20:02:11.159Z,45.76
2022-07-29T20:04:38.566Z,46.54
2022-07-29T20:07:06.931Z,46.03
2022-07-29T20:09:33.862Z,45.68
2022-07-29T20:12:00.613Z,45.46
2022-07-29T20:14:27.575Z,46.10
2022-07-29T20:16:54.330Z,46.03
2022-07-29T20:19:21.271Z,45.75
2022-07-29T20:21:48.092Z,45.37
2022-07-29T20:24:14.707Z,44.98
2022-07-29T20:26:41.242Z,45.03
2022-07-29T20:29:07.812Z,45.05
2022-07-29T20:31:34.805Z,45.31
2022-07-29T20:34:01.909Z,45.56
2022-07-29T20:36:28.665Z,46.56
2022-07-29T20:38:56.033Z,46.73
2022-07-29T20:41:22.908Z,47.20
2022-07-29T20:43:52.689Z,47.22
2022-07-29T20:46:19.411Z,47.76
2022-07-29T20:48:47.048Z,48.20
2022-07-29T20:51:14.416Z,48.70
2022-07-29T20:53:41.693Z,48.73
2022-07-29T20:56:08.967Z,49.23
2022-07-29T20:58:36.352Z,50.01
2022-07-29T21:01:04.354Z,49.84
2022-07-29T21:03:31.114Z,49.29
2022-07-29T21:05:57.941Z,49.01
2022-07-29T21:08:25.231Z,48.63
2022-07-29T21:10:52.806Z,49.31
2022-07-29T21:13:20.484Z,49.32
2022-07-29T21:15:49.543Z,49.15
2022-07-29T21:18:27.379Z,49.54
2022-07-29T21:20:55.086Z,49.71
2022-07-29T21:23:21.755Z,49.09
2022-07-29T21:25:48.395Z,49.91
2022-07-29T21:28:27.300Z,49.76
2022-07-29T21:30:56.331Z,49.41
2022-07-29T21:33:23.833Z,50.22
2022-07-29T21:38:38.099Z,49.43
2022-07-29T21:41:06.107Z,49.87
2022-07-29T21:43:32.816Z,50.14
2022-07-29T21:45:59.989Z,50.45
2022-07-29T21:48:28.937Z,51.18
2022-07-29T21:50:56.501Z,50.98
2022-07-29T21:53:24.969Z,50.35
2022-07-29T21:55:57.005Z,51.47
2022-07-29T21:58:24.510Z,51.16
2022-07-29T22:00:51.666Z,52.38
2022-07-29T22:03:18.368Z,52.50
2022-07-29T22:05:45.792Z,53.63
2022-07-29T22:08:12.894Z,54.39
2022-07-29T22:10:39.496Z,54.22
2022-07-29T22:13:06.157Z,54.01
2022-07-29T22:15:32.913Z,55.72
2022-07-29T22:17:59.550Z,56.41
2022-07-29T22:20:26.898Z,57.20
2022-07-29T22:22:54.280Z,57.04
2022-07-29T22:25:21.016Z,57.88
2022-07-29T22:27:48.002Z,58.87
2022-07-29T22:30:14.906Z,59.02
2022-07-29T22:32:41.495Z,59.85
2022-07-29T22:35:08.669Z,59.92
2022-07-29T22:37:35.339Z,60.02
2022-07-29T22:40:02.234Z,59.32
2022-07-29T22:42:28.835Z,58.81
2022-07-29T22:44:55.423Z,58.82
2022-07-29T22:47:46.256Z,57.76
2022-07-29T22:50:09.221Z,57.22
2022-07-29T22:52:35.742Z,57.38
2022-07-29T22:55:04.071Z,56.42
2022-07-29T22:57:30.602Z,55.90
2022-07-29T22:59:57.133Z,56.23
2022-07-29T23:02:23.685Z,55.93
2022-07-29T23:04:50.574Z,55.72
2022-07-29T23:07:17.547Z,56.73
2022-07-29T23:09:44.142Z,56.71
2022-07-29T23:12:10.685Z,57.12
2022-07-29T23:14:37.206Z,57.33
2022-07-29T23:17:04.793Z,57.49
2022-07-29T23:19:32.581Z,57.74
2022-07-29T23:21:59.158Z,56.72
2022-07-29T23:24:25.673Z,56.96
2022-07-29T23:26:52.234Z,56.42
2022-07-29T23:29:18.792Z,56.15
2022-07-29T23:31:48.297Z,55.78
2022-07-29T23:34:15.060Z,55.56
2022-07-29T23:36:42.236Z,55.27
2022-07-29T23:39:13.124Z,54.82
2022-07-29T23:41:39.744Z,54.84
2022-07-29T23:44:06.323Z,54.52
2022-07-29T23:46:32.882Z,55.46
2022-07-29T23:48:59.680Z,55.09
2022-07-29T23:51:26.298Z,54.62
2022-07-29T23:53:54.180Z,54.74
2022-07-29T23:56:21.112Z,54.94
2022-07-29T23:58:47.675Z,55.42
